Time;durP1;ratioP1;P1;durP2;ratioP2;P2;SDS_P1;SDS_P2;PMS_P1;PMS_P2;Temp;Humidity;BMP_temperature;BMP_pressure;BME280_temperature;BME280_humidity;BME280_pressure;Samples;Min_cycle;Max_cycle;Signal;HPM_P1;HPM_P2
2021/06/13 00:00:45;;;;;;;5.50;3.60;;;17.10;99.90;;;;;;4946952;29;20184;-85
2021/06/13 00:03:11;;;;;;;6.53;3.63;;;17.10;99.90;;;;;;4947530;29;20303;-85
2021/06/13 00:05:37;;;;;;;4.33;3.60;;;17.10;99.90;;;;;;4964305;29;20177;-84
2021/06/13 00:08:03;;;;;;;4.67;3.57;;;17.10;99.90;;;;;;4964294;29;20728;-85
2021/06/13 00:10:29;;;;;;;5.77;3.90;;;17.10;99.90;;;;;;4946863;29;20253;-85
2021/06/13 00:12:54;;;;;;;4.60;3.90;;;17.10;99.90;;;;;;4963911;29;20193;-85
2021/06/13 00:15:23;;;;;;;3.93;3.53;;;17.10;99.90;;;;;;4946215;29;20185;-85
2021/06/13 00:17:50;;;;;;;4.73;3.60;;;17.10;99.90;;;;;;4945104;29;20204;-85
2021/06/13 00:20:21;;;;;;;4.47;4.00;;;17.10;99.90;;;;;;4962373;29;20543;-85
2021/06/13 00:22:47;;;;;;;5.70;3.57;;;17.00;99.90;;;;;;4944261;29;20204;-85
2021/06/13 00:25:14;;;;;;;5.13;3.83;;;17.00;99.90;;;;;;4943839;29;20235;-85
2021/06/13 00:27:40;;;;;;;5.60;3.50;;;17.00;99.90;;;;;;4960721;29;20199;-85
2021/06/13 00:30:08;;;;;;;4.30;3.73;;;17.00;99.90;;;;;;4959978;29;20181;-85
2021/06/13 00:32:35;;;;;;;4.70;3.87;;;17.00;99.90;;;;;;4953694;29;20196;-85
2021/06/13 00:35:00;;;;;;;4.10;3.70;;;17.00;99.90;;;;;;4966367;29;20591;-85
2021/06/13 00:37:26;;;;;;;4.30;3.90;;;17.00;99.90;;;;;;4966566;29;20196;-86
2021/06/13 00:39:52;;;;;;;4.50;3.90;;;16.90;99.90;;;;;;4948977;29;20626;-85
2021/06/13 00:42:21;;;;;;;3.87;3.47;;;16.90;99.90;;;;;;4966763;29;20209;-85
2021/06/13 00:44:47;;;;;;;4.50;4.10;;;16.90;99.90;;;;;;4966420;29;20188;-85
2021/06/13 00:47:13;;;;;;;4.77;4.23;;;16.90;99.90;;;;;;4965237;29;20200;-85
2021/06/13 00:49:39;;;;;;;4.30;3.90;;;;;;;;;;4966073;29;20185;-85
2021/06/13 00:52:05;;;;;;;4.83;3.77;;;16.90;99.90;;;;;;4948914;29;20653;-85
2021/06/13 00:54:32;;;;;;;4.20;3.67;;;16.80;99.90;;;;;;4965601;28;20639;-85
2021/06/13 00:56:58;;;;;;;7.60;4.27;;;16.80;99.90;;;;;;4948721;29;20232;-85
2021/06/13 00:59:23;;;;;;;3.93;3.50;;;16.80;99.90;;;;;;4966207;29;20531;-85
2021/06/13 01:01:49;;;;;;;4.43;4.03;;;16.80;99.90;;;;;;4950647;29;20183;-85
2021/06/13 01:04:15;;;;;;;4.07;3.70;;;16.80;99.90;;;;;;4967867;29;20655;-86
2021/06/13 01:07:04;;;;;;;4.30;3.87;;;16.80;99.90;;;;;;4948739;29;20228;-85
2021/06/13 01:09:45;;;;;;;5.00;3.97;;;16.80;99.90;;;;;;4948505;29;20193;-85
2021/06/13 01:12:32;;;;;;;4.47;3.90;;;16.90;99.90;;;;;;4966237;29;20176;-85
2021/06/13 01:15:16;;;;;;;4.53;4.10;;;16.80;99.90;;;;;;4966095;29;20189;-85
2021/06/13 01:17:51;;;;;;;4.70;3.93;;;16.80;99.90;;;;;;4966007;29;20216;-85
2021/06/13 01:20:29;;;;;;;5.33;3.97;;;16.80;99.90;;;;;;4947805;29;20180;-85
2021/06/13 01:23:03;;;;;;;4.47;4.07;;;16.90;99.90;;;;;;4966735;29;20196;-85
2021/06/13 01:25:54;;;;;;;5.63;4.23;;;16.80;99.90;;;;;;4948252;29;20180;-85
2021/06/13 01:28:50;;;;;;;4.27;3.87;;;16.80;99.90;;;;;;4965860;29;20165;-85
2021/06/13 01:31:18;;;;;;;4.17;3.57;;;16.80;99.90;;;;;;4965282;29;20181;-85
2021/06/13 01:33:47;;;;;;;5.83;4.07;;;16.80;99.90;;;;;;4948376;29;20547;-85
2021/06/13 01:36:14;;;;;;;5.83;4.10;;;16.80;99.90;;;;;;4965185;29;20201;-85
2021/06/13 01:38:44;;;;;;;4.83;4.40;;;16.80;99.90;;;;;;4947303;29;20188;-85
2021/06/13 01:41:11;;;;;;;5.07;3.97;;;16.80;99.90;;;;;;4947897;29;20181;-85
2021/06/13 01:43:38;;;;;;;4.80;4.27;;;16.80;99.90;;;;;;4964776;29;20206;-85
2021/06/13 01:46:05;;;;;;;8.47;4.10;;;16.70;99.90;;;;;;4947752;29;20215;-86
2021/06/13 01:48:34;;;;;;;5.23;4.17;;;16.70;99.90;;;;;;4964957;29;20213;-86
2021/06/13 01:51:01;;;;;;;6.20;4.80;;;16.70;99.90;;;;;;4947564;29;20268;-85
2021/06/13 01:53:28;;;;;;;5.97;4.70;;;16.60;99.90;;;;;;4947544;29;20550;-86
2021/06/13 01:55:55;;;;;;;5.90;4.60;;;16.60;99.90;;;;;;4964174;29;20212;-86
2021/06/13 01:58:22;;;;;;;5.27;4.37;;;16.60;99.90;;;;;;4964198;29;20182;-85
2021/06/13 02:00:50;;;;;;;6.43;5.10;;;16.60;99.90;;;;;;4946832;29;20209;-85
2021/06/13 02:03:17;;;;;;;5.30;4.77;;;16.60;99.90;;;;;;4946199;29;20691;-85
2021/06/13 02:05:46;;;;;;;7.73;5.50;;;16.50;99.90;;;;;;4963924;28;20257;-85
2021/06/13 02:08:12;;;;;;;6.73;5.07;;;16.50;99.90;;;;;;4964187;29;20202;-85
2021/06/13 02:10:39;;;;;;;5.63;4.97;;;16.50;99.90;;;;;;4946834;29;20554;-85
2021/06/13 02:13:06;;;;;;;6.63;5.07;;;16.50;99.90;;;;;;4964039;29;20275;-85
2021/06/13 02:15:34;;;;;;;5.03;4.53;;;16.40;99.90;;;;;;4964416;29;20175;-86
2021/06/13 02:18:03;;;;;;;5.30;4.80;;;16.40;99.90;;;;;;4946612;29;20186;-86
2021/06/13 02:20:30;;;;;;;6.43;4.90;;;16.40;99.90;;;;;;4946406;29;20237;-85
2021/06/13 02:22:57;;;;;;;5.20;4.53;;;16.30;99.90;;;;;;4964462;29;20216;-86
2021/06/13 02:25:24;;;;;;;5.73;4.40;;;16.30;99.90;;;;;;4946000;29;20254;-86
2021/06/13 02:27:57;;;;;;;7.13;4.70;;;16.30;99.90;;;;;;4963878;29;20206;-85
2021/06/13 02:30:25;;;;;;;7.90;5.07;;;16.30;99.90;;;;;;4946069;29;20209;-86
2021/06/13 02:32:51;;;;;;;5.90;5.30;;;16.20;99.90;;;;;;4946246;29;20185;-86
2021/06/13 02:35:17;;;;;;;5.37;4.50;;;16.10;99.90;;;;;;4963688;29;20181;-85
2021/06/13 02:37:45;;;;;;;6.50;4.63;;;16.00;99.90;;;;;;4962857;29;20204;-86
2021/06/13 02:40:14;;;;;;;6.20;4.83;;;16.00;99.90;;;;;;4945507;29;20278;-86
2021/06/13 02:42:40;;;;;;;5.20;4.70;;;15.90;99.90;;;;;;4945036;29;20204;-85
2021/06/13 02:45:11;;;;;;;7.77;5.40;;;15.80;99.90;;;;;;4962407;29;20172;-86
2021/06/13 02:47:38;;;;;;;6.10;5.50;;;15.70;99.90;;;;;;4945076;29;20203;-85
2021/06/13 02:50:07;;;;;;;6.73;5.30;;;15.70;99.90;;;;;;4945018;29;20235;-85
2021/06/13 02:52:40;;;;;;;7.93;4.90;;;15.60;99.90;;;;;;4961680;29;20205;-85
2021/06/13 02:55:09;;;;;;;8.00;5.53;;;15.60;99.90;;;;;;4943662;29;20181;-85
2021/06/13 02:57:53;;;;;;;6.77;5.63;;;15.50;99.90;;;;;;4960095;29;20212;-85
2021/06/13 03:00:22;;;;;;;9.30;5.77;;;15.50;99.90;;;;;;4960064;29;20180;-85
2021/06/13 03:02:51;;;;;;;7.07;5.50;;;15.50;99.90;;;;;;4943016;29;20266;-85
2021/06/13 03:05:21;;;;;;;8.87;6.23;;;15.40;99.90;;;;;;4942576;29;20547;-85
2021/06/13 03:07:47;;;;;;;7.50;5.83;;;15.40;99.90;;;;;;4946506;28;20192;-85
2021/06/13 03:10:13;;;;;;;6.93;5.37;;;15.40;99.90;;;;;;4948260;29;20189;-85
2021/06/13 03:12:41;;;;;;;8.57;6.33;;;15.30;99.90;;;;;;4964233;29;20184;-85
2021/06/13 03:15:07;;;;;;;10.50;6.77;;;15.30;99.90;;;;;;4946370;29;20188;-85
2021/06/13 03:17:35;;;;;;;7.67;6.47;;;15.20;99.90;;;;;;4945551;29;20570;-85
2021/06/13 03:20:01;;;;;;;7.47;6.50;;;15.20;99.90;;;;;;4949848;29;20547;-85
2021/06/13 03:22:27;;;;;;;8.00;6.50;;;15.20;99.90;;;;;;4949279;29;20208;-85
2021/06/13 03:24:54;;;;;;;8.20;6.40;;;15.20;99.90;;;;;;4949363;29;20610;-85
2021/06/13 03:27:21;;;;;;;10.20;7.10;;;15.20;99.90;;;;;;4967086;29;20196;-85
2021/06/13 03:29:48;;;;;;;8.07;6.73;;;15.20;99.90;;;;;;4966915;29;20181;-84
2021/06/13 03:32:15;;;;;;;9.13;6.87;;;15.20;99.90;;;;;;4949085;29;20208;-85
2021/06/13 03:34:42;;;;;;;8.10;6.00;;;15.20;99.90;;;;;;4966875;29;20695;-85
2021/06/13 03:37:10;;;;;;;9.67;6.87;;;15.20;99.90;;;;;;4947699;29;20201;-85
2021/06/13 03:39:37;;;;;;;9.23;6.70;;;15.20;99.90;;;;;;4966260;29;20227;-85
2021/06/13 03:42:04;;;;;;;7.23;6.47;;;15.20;99.90;;;;;;4949890;29;20291;-85
2021/06/13 03:44:31;;;;;;;11.47;6.87;;;15.20;99.90;;;;;;4950016;29;20177;-85
2021/06/13 03:46:58;;;;;;;10.77;7.97;;;15.20;99.90;;;;;;4966745;29;20193;-85
2021/06/13 03:49:25;;;;;;;9.23;7.53;;;15.20;99.90;;;;;;4967052;29;20181;-85
2021/06/13 03:51:52;;;;;;;9.57;6.83;;;15.30;99.90;;;;;;4949560;29;20185;-85
2021/06/13 03:54:18;;;;;;;9.13;7.13;;;15.30;99.90;;;;;;4948809;29;20212;-85
2021/06/13 03:56:56;;;;;;;11.90;8.00;;;15.40;99.90;;;;;;4948916;29;20196;-85
2021/06/13 03:59:26;;;;;;;9.20;8.23;;;15.40;99.90;;;;;;4966271;29;20161;-84
2021/06/13 04:01:53;;;;;;;10.47;7.77;;;15.40;99.90;;;;;;4948688;29;20177;-85
2021/06/13 04:04:19;;;;;;;9.17;7.10;;;15.40;99.90;;;;;;4965411;29;20559;-84
2021/06/13 04:06:47;;;;;;;13.13;7.60;;;15.30;99.90;;;;;;4949079;29;20208;-85
2021/06/13 04:09:16;;;;;;;11.27;7.23;;;15.40;99.90;;;;;;4948635;29;20235;-84
2021/06/13 04:11:47;;;;;;;9.03;7.73;;;15.30;99.90;;;;;;4966399;29;20173;-85
2021/06/13 04:14:15;;;;;;;9.33;7.63;;;15.20;99.90;;;;;;4966015;29;20189;-85
2021/06/13 04:16:46;;;;;;;9.43;7.30;;;15.20;99.90;;;;;;4948267;29;20567;-84
2021/06/13 04:19:12;;;;;;;11.60;7.60;;;15.20;99.90;;;;;;4965901;29;20173;-85
2021/06/13 04:21:39;;;;;;;8.20;7.17;;;15.20;99.90;;;;;;4965571;29;20527;-84
2021/06/13 04:24:10;;;;;;;12.07;7.43;;;15.20;99.90;;;;;;4964609;29;20295;-84
2021/06/13 04:26:38;;;;;;;10.33;7.67;;;15.20;99.90;;;;;;4965062;29;20197;-84
2021/06/13 04:29:04;;;;;;;9.60;7.43;;;15.20;99.90;;;;;;4965171;28;20232;-84
2021/06/13 04:31:30;;;;;;;10.17;7.53;;;15.20;99.90;;;;;;4947813;29;20177;-84
2021/06/13 04:33:55;;;;;;;9.93;7.17;;;15.20;99.90;;;;;;4965215;29;20211;-85
2021/06/13 04:36:22;;;;;;;8.87;7.20;;;15.20;99.90;;;;;;4947802;29;20295;-84
2021/06/13 04:38:48;;;;;;;12.10;7.40;;;15.20;99.90;;;;;;4947638;29;20193;-84
2021/06/13 04:41:14;;;;;;;8.40;7.00;;;15.20;99.90;;;;;;4947751;29;20320;-84
2021/06/13 04:43:40;;;;;;;9.27;6.80;;;;;;;;;;4947480;29;20249;-85
2021/06/13 04:46:10;;;;;;;11.10;7.00;;;15.30;99.90;;;;;;4947523;29;20205;-84
2021/06/13 04:48:37;;;;;;;8.37;6.70;;;15.30;99.90;;;;;;4947758;29;20204;-85
2021/06/13 04:51:06;;;;;;;11.87;6.83;;;15.40;99.90;;;;;;4947422;29;20181;-85
2021/06/13 04:53:55;;;;;;;9.50;6.40;;;15.40;99.90;;;;;;4964666;29;20177;-85
2021/06/13 04:56:44;;;;;;;11.10;6.90;;;15.50;99.90;;;;;;4947776;29;20730;-85
2021/06/13 04:59:09;;;;;;;11.23;7.13;;;15.50;99.90;;;;;;4916540;29;20185;-85
2021/06/13 05:01:36;;;;;;;10.57;6.17;;;15.60;99.90;;;;;;4964733;29;20235;-85
2021/06/13 05:04:03;;;;;;;9.87;6.27;;;15.70;99.90;;;;;;4947744;29;20217;-84
2021/06/13 05:06:28;;;;;;;7.73;6.10;;;15.70;99.90;;;;;;4947960;29;20215;-84
2021/06/13 05:08:54;;;;;;;9.17;7.13;;;15.70;99.90;;;;;;4947593;29;20180;-84
2021/06/13 05:11:20;;;;;;;9.53;6.10;;;15.80;99.90;;;;;;4947874;29;20213;-84
2021/06/13 05:13:45;;;;;;;10.07;5.77;;;15.80;99.90;;;;;;4964182;29;20670;-84
2021/06/13 05:16:11;;;;;;;8.67;5.87;;;15.90;99.90;;;;;;4964212;29;20192;-85
2021/06/13 05:18:37;;;;;;;10.83;6.07;;;15.90;99.90;;;;;;4947156;29;20185;-85
2021/06/13 05:21:03;;;;;;;8.53;6.57;;;15.90;99.90;;;;;;4946837;29;20203;-84
2021/06/13 05:23:29;;;;;;;7.90;6.23;;;15.90;99.90;;;;;;4947497;29;20216;-84
2021/06/13 05:25:57;;;;;;;8.17;6.37;;;15.90;99.90;;;;;;4947580;29;20205;-85
2021/06/13 05:28:24;;;;;;;8.60;6.17;;;15.90;99.90;;;;;;4946858;29;20177;-84
2021/06/13 05:30:50;;;;;;;9.20;6.00;;;15.90;99.90;;;;;;4947014;29;20205;-84
2021/06/13 05:33:17;;;;;;;11.77;6.13;;;15.90;99.90;;;;;;4946262;29;20235;-84
2021/06/13 05:35:43;;;;;;;8.67;6.33;;;16.10;99.90;;;;;;4963161;29;20180;-84
2021/06/13 05:38:10;;;;;;;12.77;6.30;;;16.10;99.90;;;;;;4961909;29;20213;-84
2021/06/13 05:40:37;;;;;;;6.97;5.30;;;16.20;99.90;;;;;;4960454;28;20169;-84
2021/06/13 05:43:03;;;;;;;7.77;5.83;;;16.20;99.90;;;;;;4960432;29;20204;-84
2021/06/13 05:45:31;;;;;;;8.70;6.27;;;16.30;99.90;;;;;;4968103;28;20253;-84
2021/06/13 05:47:58;;;;;;;10.00;6.10;;;16.30;99.90;;;;;;4947543;29;20272;-85
2021/06/13 05:50:25;;;;;;;8.63;6.10;;;16.30;99.90;;;;;;4947715;29;20189;-85
2021/06/13 05:52:51;;;;;;;9.63;6.97;;;16.30;99.90;;;;;;4964769;29;20232;-84
2021/06/13 05:55:18;;;;;;;11.80;5.77;;;16.30;99.90;;;;;;4947984;29;20204;-85
2021/06/13 05:57:45;;;;;;;9.40;6.50;;;16.40;99.90;;;;;;4948575;29;20302;-84
2021/06/13 06:00:23;;;;;;;12.07;7.10;;;16.40;99.90;;;;;;4965984;29;20181;-85
2021/06/13 06:02:49;;;;;;;8.47;7.13;;;16.40;99.90;;;;;;4948736;29;20236;-85
2021/06/13 06:05:16;;;;;;;10.27;6.77;;;16.50;99.90;;;;;;4949365;29;20192;-85
2021/06/13 06:07:44;;;;;;;9.60;6.20;;;16.60;99.90;;;;;;4949095;29;20239;-84
2021/06/13 06:10:11;;;;;;;10.23;7.30;;;16.80;99.90;;;;;;4949392;29;20223;-85
2021/06/13 06:12:38;;;;;;;10.20;7.07;;;16.80;99.90;;;;;;4949260;29;20185;-84
2021/06/13 06:15:06;;;;;;;10.43;7.07;;;16.90;99.90;;;;;;4949832;29;20208;-85
2021/06/13 06:17:32;;;;;;;9.30;6.70;;;17.00;99.90;;;;;;4967936;29;20667;-86
2021/06/13 06:19:57;;;;;;;9.53;7.03;;;17.10;99.90;;;;;;4967981;29;20180;-86
2021/06/13 06:22:23;;;;;;;9.47;6.37;;;17.30;99.90;;;;;;4949439;29;20220;-85
2021/06/13 06:24:49;;;;;;;10.83;7.23;;;17.40;99.90;;;;;;4948749;29;20231;-85
2021/06/13 06:27:15;;;;;;;9.13;6.57;;;;;;;;;;4949023;29;20292;-86
2021/06/13 06:29:41;;;;;;;9.23;6.07;;;17.60;99.90;;;;;;4947884;29;20263;-86
2021/06/13 06:32:07;;;;;;;7.87;6.63;;;17.80;99.90;;;;;;4947160;29;20286;-85
2021/06/13 06:34:32;;;;;;;11.77;7.03;;;17.80;99.90;;;;;;4946997;29;20176;-85
2021/06/13 06:36:58;;;;;;;9.13;6.50;;;17.80;99.90;;;;;;4954442;29;20212;-84
2021/06/13 06:39:24;;;;;;;8.47;6.07;;;17.90;99.90;;;;;;4947629;29;20725;-85
2021/06/13 06:41:49;;;;;;;7.10;5.63;;;18.10;99.90;;;;;;4947898;29;20216;-85
2021/06/13 06:44:15;;;;;;;16.43;7.00;;;18.10;99.90;;;;;;4948483;29;20651;-86
2021/06/13 06:46:42;;;;;;;7.27;6.03;;;;;;;;;;4948543;29;20584;-86
2021/06/13 06:49:08;;;;;;;9.70;5.50;;;18.20;99.90;;;;;;4947965;29;20190;-84
2021/06/13 06:51:34;;;;;;;7.07;5.27;;;18.20;99.90;;;;;;4947190;29;20251;-85
2021/06/13 06:54:00;;;;;;;10.77;5.53;;;18.20;99.90;;;;;;4947632;29;20178;-84
2021/06/13 06:56:28;;;;;;;9.77;5.90;;;18.30;99.90;;;;;;4949493;29;20234;-84
2021/06/13 06:58:55;;;;;;;8.23;5.50;;;18.30;99.90;;;;;;4948746;29;20185;-85
2021/06/13 07:01:21;;;;;;;11.27;5.67;;;18.40;99.90;;;;;;4946055;29;20184;-85
2021/06/13 07:03:47;;;;;;;10.70;5.93;;;18.40;99.90;;;;;;4945908;29;20581;-84
2021/06/13 07:06:13;;;;;;;11.53;5.60;;;18.40;99.90;;;;;;4946053;29;20201;-85
2021/06/13 07:08:39;;;;;;;11.67;6.37;;;18.50;99.90;;;;;;4962644;29;20522;-85
2021/06/13 07:11:05;;;;;;;8.47;4.93;;;18.50;99.90;;;;;;4945861;29;20203;-85
2021/06/13 07:13:31;;;;;;;9.40;5.73;;;18.50;99.90;;;;;;4946134;29;20560;-85
2021/06/13 07:15:57;;;;;;;9.53;6.03;;;18.60;99.90;;;;;;4962913;29;20200;-85
2021/06/13 07:18:23;;;;;;;8.30;5.20;;;18.60;99.90;;;;;;4962784;29;20202;-86
2021/06/13 07:20:48;;;;;;;9.67;5.17;;;18.60;99.90;;;;;;4944720;29;20593;-85
2021/06/13 07:23:14;;;;;;;6.00;4.87;;;18.80;99.90;;;;;;4944904;29;20590;-85
2021/06/13 07:25:40;;;;;;;6.80;4.83;;;18.50;99.90;;;;;;4945205;29;20182;-83
2021/06/13 07:28:07;;;;;;;7.43;5.20;;;18.50;99.90;;;;;;4962294;29;20181;-82
2021/06/13 07:30:33;;;;;;;8.47;4.87;;;18.40;99.90;;;;;;4963646;29;20239;-81
2021/06/13 07:33:02;;;;;;;7.57;5.30;;;18.40;99.90;;;;;;4959459;29;20187;-79
2021/06/13 07:35:28;;;;;;;10.87;5.27;;;18.20;99.90;;;;;;4941788;29;20190;-79
2021/06/13 07:37:54;;;;;;;8.53;5.07;;;18.20;99.90;;;;;;4959515;29;20738;-79
2021/06/13 07:40:21;;;;;;;9.53;5.27;;;18.30;99.90;;;;;;4958260;29;20203;-80
2021/06/13 07:42:47;;;;;;;6.43;5.13;;;18.50;99.90;;;;;;4941218;29;20207;-81
2021/06/13 07:45:14;;;;;;;7.77;5.63;;;18.90;99.90;;;;;;4958413;29;20183;-80
2021/06/13 07:47:40;;;;;;;7.97;5.27;;;19.20;99.90;;;;;;4959185;29;20226;-81
2021/06/13 07:50:08;;;;;;;10.47;5.63;;;19.50;99.90;;;;;;4959639;29;20205;-82
2021/06/13 07:52:34;;;;;;;7.40;5.10;;;19.50;99.90;;;;;;4959765;29;20180;-81
2021/06/13 07:55:00;;;;;;;8.03;5.50;;;19.50;99.90;;;;;;4941614;29;20197;-80
2021/06/13 07:57:26;;;;;;;6.37;4.87;;;19.60;99.90;;;;;;4959814;29;20692;-81
2021/06/13 07:59:52;;;;;;;8.17;5.43;;;19.50;99.90;;;;;;4941679;29;20186;-81
2021/06/13 08:02:17;;;;;;;10.40;5.63;;;19.50;99.90;;;;;;4941709;29;20208;-80
2021/06/13 08:04:48;;;;;;;9.23;5.60;;;19.50;99.90;;;;;;4943423;29;20186;-81
2021/06/13 08:07:14;;;;;;;10.53;5.63;;;19.50;99.90;;;;;;4945581;29;20249;-81
2021/06/13 08:09:40;;;;;;;7.23;5.50;;;19.50;99.90;;;;;;4962293;29;20179;-79
2021/06/13 08:12:06;;;;;;;10.03;5.70;;;19.40;99.90;;;;;;4961916;29;20593;-80
2021/06/13 08:14:32;;;;;;;6.63;5.40;;;19.50;99.90;;;;;;4962982;29;20196;-80
2021/06/13 08:16:58;;;;;;;11.77;5.63;;;19.60;99.90;;;;;;4964081;29;20272;-81
2021/06/13 08:19:24;;;;;;;6.93;5.63;;;19.60;99.90;;;;;;4947440;29;20212;-80
2021/06/13 08:21:51;;;;;;;10.83;5.93;;;19.80;99.90;;;;;;4947540;29;20181;-81
2021/06/13 08:24:17;;;;;;;7.97;5.77;;;19.90;99.90;;;;;;4944397;29;20220;-80
2021/06/13 08:26:42;;;;;;;7.20;4.93;;;19.90;99.90;;;;;;4961413;29;20193;-80
2021/06/13 08:29:08;;;;;;;8.50;5.43;;;19.70;99.90;;;;;;4961683;29;20359;-80
2021/06/13 08:31:34;;;;;;;9.33;5.53;;;19.70;99.90;;;;;;4961102;29;20200;-80
2021/06/13 08:33:59;;;;;;;8.47;5.50;;;19.80;99.90;;;;;;4960548;29;20173;-80
2021/06/13 08:36:26;;;;;;;8.03;5.50;;;20.10;99.90;;;;;;4943116;29;20256;-80
2021/06/13 08:38:55;;;;;;;12.47;5.90;;;20.40;99.90;;;;;;4960627;29;20173;-80
2021/06/13 08:41:21;;;;;;;7.60;5.90;;;20.40;99.90;;;;;;4942863;29;20605;-80
2021/06/13 08:43:48;;;;;;;7.00;5.50;;;20.20;99.90;;;;;;4960369;29;20694;-79
2021/06/13 08:46:14;;;;;;;7.47;5.40;;;20.60;99.90;;;;;;4960332;29;20200;-79
2021/06/13 08:48:44;;;;;;;5.70;5.10;;;21.00;99.90;;;;;;4960246;29;20229;-80
2021/06/13 08:51:10;;;;;;;6.37;5.37;;;21.50;99.90;;;;;;4961148;29;20176;-80
2021/06/13 08:53:36;;;;;;;5.70;5.17;;;21.80;99.90;;;;;;4960559;29;20177;-80
2021/06/13 08:56:02;;;;;;;6.63;5.33;;;22.10;99.90;;;;;;4961042;29;20197;-80
2021/06/13 08:58:28;;;;;;;5.47;4.83;;;22.10;99.90;;;;;;4943356;29;20182;-80
2021/06/13 09:00:54;;;;;;;7.70;4.90;;;21.90;99.90;;;;;;4942864;29;20645;-80
2021/06/13 09:03:20;;;;;;;7.47;5.00;;;21.70;99.90;;;;;;4960082;29;20206;-78
2021/06/13 09:05:46;;;;;;;8.07;5.00;;;21.80;99.90;;;;;;4942822;29;20182;-80
2021/06/13 09:08:14;;;;;;;9.73;5.23;;;21.60;99.90;;;;;;4942893;29;20273;-80
2021/06/13 09:10:43;;;;;;;7.93;4.83;;;21.60;99.90;;;;;;4959995;29;20585;-79
2021/06/13 09:13:09;;;;;;;9.70;5.00;;;21.60;99.90;;;;;;4959853;29;20685;-80
2021/06/13 09:15:38;;;;;;;5.10;4.60;;;21.90;99.90;;;;;;4942225;29;20664;-79
2021/06/13 09:18:04;;;;;;;6.47;4.77;;;22.10;99.90;;;;;;4942792;29;20646;-79
2021/06/13 09:20:30;;;;;;;4.70;4.20;;;22.30;99.90;;;;;;4943067;29;20232;-79
2021/06/13 09:23:06;;;;;;;5.90;4.10;;;22.40;99.90;;;;;;4960352;29;20203;-79
2021/06/13 09:25:34;;;;;;;6.07;3.77;;;22.50;99.90;;;;;;4959404;29;20162;-79
2021/06/13 09:28:08;;;;;;;5.60;3.43;;;22.90;99.90;;;;;;4942824;29;20192;-80
2021/06/13 09:30:36;;;;;;;5.07;3.97;;;23.20;99.90;;;;;;4950091;29;20176;-82
2021/06/13 09:33:04;;;;;;;7.10;4.20;;;22.80;99.90;;;;;;4944197;29;20191;-81
2021/06/13 09:35:31;;;;;;;5.90;4.00;;;22.30;99.90;;;;;;4944390;29;20635;-82
2021/06/13 09:38:20;;;;;;;13.83;4.63;;;21.80;99.90;;;;;;4944259;29;20211;-82
2021/06/13 09:40:49;;;;;;;4.37;3.97;;;21.50;99.90;;;;;;4942274;29;20185;-77
2021/06/13 09:43:28;;;;;;;6.80;3.87;;;21.50;99.90;;;;;;4957240;29;20684;-77
2021/06/13 09:46:00;;;;;;;5.03;3.50;;;21.50;99.90;;;;;;4956905;29;20203;-78
2021/06/13 09:48:26;;;;;;;4.23;3.77;;;22.00;99.90;;;;;;4957509;29;20170;-77
2021/06/13 09:50:55;;;;;;;6.20;3.97;;;22.70;99.90;;;;;;4957758;29;20542;-78
2021/06/13 09:53:24;;;;;;;8.07;3.80;;;22.80;99.90;;;;;;4958894;29;20181;-78
2021/06/13 09:56:07;;;;;;;4.33;3.40;;;22.60;99.90;;;;;;4959378;29;20188;-79
2021/06/13 09:58:34;;;;;;;6.40;4.00;;;22.40;99.90;;;;;;4960037;29;20184;-83
2021/06/13 10:01:10;;;;;;;5.20;3.60;;;22.20;99.90;;;;;;4961052;29;20232;-81
2021/06/13 10:03:37;;;;;;;5.80;3.20;;;22.80;99.90;;;;;;4961125;29;20638;-80
2021/06/13 10:06:05;;;;;;;5.97;3.77;;;23.50;99.90;;;;;;4958497;29;20286;-80
2021/06/13 10:08:31;;;;;;;4.23;2.90;;;23.70;99.90;;;;;;4942516;29;20184;-81
2021/06/13 10:11:00;;;;;;;6.70;3.63;;;23.90;99.90;;;;;;4959546;29;20180;-80
2021/06/13 10:13:46;;;;;;;5.43;3.10;;;24.10;99.90;;;;;;4941874;29;20201;-80
2021/06/13 10:16:24;;;;;;;8.17;6.50;;;24.40;99.90;;;;;;4959793;29;20199;-81
2021/06/13 10:18:56;;;;;;;6.40;5.60;;;24.70;99.90;;;;;;4943110;29;20189;-81
2021/06/13 10:21:25;;;;;;;9.73;6.00;;;24.90;99.90;;;;;;4942729;29;20195;-81
2021/06/13 10:23:52;;;;;;;5.73;4.33;;;25.30;99.90;;;;;;4943451;29;20306;-84
2021/06/13 10:26:17;;;;;;;7.43;3.90;;;25.30;99.90;;;;;;4962862;29;20204;-86
2021/06/13 10:28:43;;;;;;;7.53;4.90;;;25.40;99.90;;;;;;4964030;28;20182;-86
2021/06/13 10:31:09;;;;;;;10.33;6.50;;;25.60;99.90;;;;;;4945768;29;20535;-84
2021/06/13 10:33:35;;;;;;;5.63;4.27;;;25.70;99.70;;;;;;4944284;29;20325;-84
2021/06/13 10:36:01;;;;;;;15.27;12.57;;;25.50;99.20;;;;;;4963461;29;20275;-84
2021/06/13 10:38:29;;;;;;;9.47;8.20;;;25.60;99.90;;;;;;4963131;29;20180;-84
2021/06/13 10:40:56;;;;;;;15.43;10.83;;;25.60;99.90;;;;;;4967099;29;20262;-82
2021/06/13 10:43:25;;;;;;;6.37;5.23;;;25.90;98.00;;;;;;4962543;29;20212;-82
2021/06/13 10:45:51;;;;;;;12.77;10.17;;;26.10;96.90;;;;;;4946869;29;20181;-84
2021/06/13 10:48:18;;;;;;;10.47;7.20;;;26.30;99.90;;;;;;4947297;29;20180;-82
2021/06/13 10:50:44;;;;;;;6.10;3.77;;;26.40;97.10;;;;;;4963326;29;20181;-82
2021/06/13 10:53:11;;;;;;;6.97;5.17;;;26.40;99.70;;;;;;4946105;29;20219;-83
2021/06/13 10:55:53;;;;;;;3.67;2.90;;;26.60;99.90;;;;;;4946049;29;20176;-83
2021/06/13 10:58:49;;;;;;;6.97;4.30;;;26.50;98.30;;;;;;4946495;29;20580;-83
2021/06/13 11:01:29;;;;;;;4.30;3.40;;;26.90;99.40;;;;;;4945741;29;20174;-82
2021/06/13 11:04:06;;;;;;;3.83;2.20;;;27.00;92.20;;;;;;4962908;29;20204;-82
2021/06/13 11:06:45;;;;;;;4.30;2.60;;;27.10;95.00;;;;;;4945547;29;20196;-81
2021/06/13 11:09:14;;;;;;;4.47;3.67;;;27.10;91.50;;;;;;4946218;29;20200;-79
2021/06/13 11:11:43;;;;;;;3.20;2.77;;;27.30;93.20;;;;;;4945887;29;20181;-80
2021/06/13 11:14:29;;;;;;;6.07;2.70;;;27.40;92.50;;;;;;4942728;29;20205;-80
2021/06/13 11:17:00;;;;;;;2.30;2.10;;;27.60;88.70;;;;;;4959256;29;20200;-81
2021/06/13 11:19:26;;;;;;;19.90;15.80;;;27.60;90.40;;;;;;4960892;29;20256;-83
2021/06/13 11:22:21;;;;;;;4.60;3.17;;;27.70;89.00;;;;;;4960212;29;20207;-85
2021/06/13 11:24:48;;;;;;;3.07;2.57;;;28.00;91.00;;;;;;4945560;29;20193;-84
2021/06/13 11:27:25;;;;;;;3.73;2.50;;;28.20;90.10;;;;;;4962847;29;20259;-86
2021/06/13 11:29:51;;;;;;;3.80;2.60;;;28.40;83.00;;;;;;4948468;29;20196;-86
2021/06/13 11:32:37;;;;;;;3.57;3.27;;;28.60;86.20;;;;;;4952322;29;20206;-84
2021/06/13 11:35:22;;;;;;;5.47;4.10;;;28.60;78.60;;;;;;4980548;28;20644;-85
2021/06/13 11:37:50;;;;;;;5.60;2.73;;;29.00;81.60;;;;;;4980452;28;20198;-85
2021/06/13 11:40:31;;;;;;;5.17;3.40;;;28.90;83.60;;;;;;4966771;28;20559;-85
2021/06/13 11:43:11;;;;;;;3.33;2.67;;;29.30;80.00;;;;;;4985742;28;20200;-84
2021/06/13 11:45:38;;;;;;;2.17;1.97;;;29.70;75.30;;;;;;4984052;28;20170;-82
2021/06/13 11:48:26;;;;;;;2.53;2.03;;;29.90;73.10;;;;;;4983881;28;20587;-82
2021/06/13 11:51:09;;;;;;;5.40;2.40;;;29.40;69.90;;;;;;4982571;28;20187;-82
2021/06/13 11:54:01;;;;;;;2.60;2.07;;;29.50;74.00;;;;;;4982704;28;20175;-81
2021/06/13 11:59:18;;;;;;;3.07;2.23;;;30.00;69.10;;;;;;4985589;28;20177;-84
2021/06/13 12:01:52;;;;;;;4.03;2.33;;;29.60;63.00;;;;;;4968805;28;20631;-83
2021/06/13 12:04:17;;;;;;;5.00;2.30;;;29.40;67.70;;;;;;4985654;28;20204;-84
2021/06/13 12:06:44;;;;;;;4.17;2.67;;;29.50;73.00;;;;;;4985840;28;20194;-84
2021/06/13 12:09:17;;;;;;;3.20;2.23;;;30.40;68.00;;;;;;4967149;28;20182;-84
2021/06/13 12:11:50;;;;;;;4.80;2.40;;;31.10;65.80;;;;;;4967891;28;20221;-83
2021/06/13 12:14:35;;;;;;;3.07;2.10;;;31.10;60.00;;;;;;4967556;28;20277;-84
2021/06/13 12:17:14;;;;;;;3.50;2.40;;;31.00;58.20;;;;;;4985354;28;20204;-83
2021/06/13 12:20:09;;;;;;;2.27;2.07;;;31.30;61.80;;;;;;4985742;28;20537;-83
2021/06/13 12:27:50;;;;;;;2.10;1.83;;;31.20;57.50;;;;;;4985723;28;20241;-84
2021/06/13 12:30:23;;;;;;;2.50;2.20;;;31.40;65.20;;;;;;4968608;28;20194;-84
2021/06/13 12:33:10;;;;;;;3.67;2.13;;;31.40;57.90;;;;;;4967984;28;20167;-85
2021/06/13 12:35:48;;;;;;;2.70;1.90;;;31.20;55.60;;;;;;4968680;28;20197;-84
2021/06/13 12:38:21;;;;;;;2.90;1.87;;;31.10;58.70;;;;;;4967623;28;20206;-85
2021/06/13 12:40:51;;;;;;;2.17;1.90;;;31.10;59.10;;;;;;4967970;28;20624;-84
2021/06/13 12:43:33;;;;;;;3.97;1.97;;;31.40;61.40;;;;;;4968646;28;20213;-85
2021/06/13 12:45:58;;;;;;;3.93;2.17;;;31.70;58.30;;;;;;4967350;28;20201;-85
2021/06/13 12:48:24;;;;;;;3.03;2.10;;;31.30;59.90;;;;;;4984946;28;20182;-86
2021/06/13 12:50:50;;;;;;;2.50;1.80;;;31.30;56.00;;;;;;4983775;28;20233;-86
2021/06/13 12:53:16;;;;;;;1.80;1.67;;;31.40;53.20;;;;;;4965931;28;20213;-84
2021/06/13 12:55:47;;;;;;;2.90;2.33;;;31.20;58.20;;;;;;4966006;28;20183;-85
2021/06/13 12:58:15;;;;;;;3.43;2.10;;;31.20;59.80;;;;;;4964535;28;20184;-86
2021/06/13 13:00:41;;;;;;;2.70;2.10;;;31.10;56.50;;;;;;4964408;28;20183;-86
2021/06/13 13:03:16;;;;;;;3.17;2.20;;;31.20;58.10;;;;;;4962431;28;20209;-87